createdAt,value
2024-05-09T00:01:31.958Z,128.88
2024-05-09T00:04:07.632Z,131.71
2024-05-09T00:06:42.876Z,127.65
2024-05-09T00:09:20.827Z,122.35
2024-05-09T00:11:56.121Z,120.23
2024-05-09T00:14:31.356Z,119.16
2024-05-09T00:17:07.006Z,120.63
2024-05-09T00:19:47.054Z,118.61
2024-05-09T00:22:24.602Z,123.81
2024-05-09T00:25:02.442Z,124.17
2024-05-09T00:27:42.475Z,126.18
2024-05-09T00:30:24.435Z,133.71
2024-05-09T00:33:09.420Z,139.43
2024-05-09T00:35:45.802Z,134.24
2024-05-09T00:38:21.134Z,142.94
2024-05-09T00:40:58.987Z,140.28
2024-05-09T00:43:34.315Z,137.04
2024-05-09T00:46:10.101Z,132.42
2024-05-09T00:48:45.614Z,130.95
2024-05-09T00:51:21.146Z,127.43
2024-05-09T00:53:56.493Z,127.69
2024-05-09T00:56:38.240Z,125.83
2024-05-09T00:59:13.890Z,129.35
2024-05-09T01:01:50.302Z,130.19
2024-05-09T01:04:25.673Z,126.07
2024-05-09T01:07:00.809Z,129.16
2024-05-09T01:09:36.055Z,134.46
2024-05-09T01:12:14.160Z,143.45
2024-05-09T01:14:49.673Z,149.69
2024-05-09T01:17:25.015Z,141.15
2024-05-09T01:20:00.349Z,145.14
2024-05-09T01:22:38.543Z,138.11
2024-05-09T01:25:16.467Z,129.04
2024-05-09T01:27:51.633Z,128.12
2024-05-09T01:30:33.801Z,138.95
2024-05-09T01:33:12.546Z,140.46
2024-05-09T01:35:48.339Z,148.43
2024-05-09T01:38:23.583Z,139.90
2024-05-09T01:41:01.640Z,145.34
2024-05-09T01:43:36.806Z,146.17
2024-05-09T01:46:19.501Z,144.27
2024-05-09T01:48:54.647Z,142.54
2024-05-09T01:51:29.953Z,139.37
2024-05-09T01:54:06.041Z,140.41
2024-05-09T01:56:43.776Z,138.85
2024-05-09T01:59:18.990Z,139.60
2024-05-09T02:01:56.999Z,139.21
2024-05-09T02:04:33.384Z,134.08
2024-05-09T02:07:08.644Z,134.11
2024-05-09T02:09:43.944Z,136.48
2024-05-09T02:12:21.815Z,137.39
2024-05-09T02:14:57.067Z,134.04
2024-05-09T02:17:32.513Z,128.49
2024-05-09T02:20:13.215Z,142.77
2024-05-09T02:22:51.353Z,144.63
2024-05-09T02:25:29.582Z,141.18
2024-05-09T02:28:10.292Z,150.72
2024-05-09T02:30:45.434Z,145.49
2024-05-09T02:33:20.746Z,144.49
2024-05-09T02:35:55.911Z,136.27
2024-05-09T02:38:28.602Z,132.98
2024-05-09T02:41:03.888Z,131.92
2024-05-09T02:43:39.131Z,130.59
2024-05-09T02:46:14.276Z,137.10
2024-05-09T02:48:46.862Z,142.40
2024-05-09T02:51:22.078Z,143.83
2024-05-09T02:53:54.674Z,141.84
2024-05-09T02:56:29.941Z,144.29
2024-05-09T02:59:05.246Z,144.47
2024-05-09T03:01:40.499Z,147.58
2024-05-09T03:04:13.081Z,151.75
2024-05-09T03:06:48.297Z,145.77
2024-05-09T03:09:21.614Z,147.85
2024-05-09T03:11:56.922Z,145.04
2024-05-09T03:14:32.243Z,147.72
2024-05-09T03:17:07.862Z,152.32
2024-05-09T03:19:40.460Z,146.42
2024-05-09T03:22:15.627Z,141.24
2024-05-09T03:24:48.061Z,140.25
2024-05-09T03:27:24.938Z,140.60
2024-05-09T03:30:00.093Z,149.85
2024-05-09T03:32:35.463Z,143.16
2024-05-09T03:35:08.150Z,140.96
2024-05-09T03:37:43.312Z,143.11
2024-05-09T03:40:23.652Z,137.01
2024-05-09T03:43:01.623Z,135.89
2024-05-09T03:45:39.395Z,141.01
2024-05-09T03:48:12.217Z,143.70
2024-05-09T03:50:48.001Z,143.25
2024-05-09T03:53:20.671Z,150.40
2024-05-09T03:55:56.990Z,151.76
2024-05-09T03:58:29.625Z,148.03
2024-05-09T04:01:10.164Z,142.63
2024-05-09T04:03:42.904Z,144.67
2024-05-09T04:06:23.719Z,141.29
2024-05-09T04:08:56.273Z,146.00
2024-05-09T04:11:31.622Z,149.35
2024-05-09T04:14:06.693Z,146.16
2024-05-09T04:16:44.660Z,143.08
2024-05-09T04:19:17.536Z,141.82
2024-05-09T04:21:53.029Z,136.78
2024-05-09T04:24:25.646Z,134.60
2024-05-09T04:27:00.831Z,136.30
2024-05-09T04:29:37.463Z,138.63
2024-05-09T04:32:15.406Z,134.13
2024-05-09T04:34:47.959Z,133.30
2024-05-09T04:37:23.223Z,131.51
2024-05-09T04:39:55.763Z,129.10
2024-05-09T04:42:30.928Z,128.43
2024-05-09T04:45:03.865Z,128.76
2024-05-09T04:47:41.959Z,129.28
2024-05-09T04:50:21.215Z,129.68
2024-05-09T04:53:05.123Z,133.28
2024-05-09T04:55:38.263Z,136.20
2024-05-09T04:58:14.259Z,149.20
2024-05-09T05:00:48.490Z,156.49
2024-05-09T05:03:26.524Z,149.13
2024-05-09T05:05:59.199Z,150.78
2024-05-09T05:08:34.644Z,157.55
2024-05-09T05:11:07.321Z,161.91
2024-05-09T05:13:42.502Z,157.18
2024-05-09T05:16:19.443Z,161.41
2024-05-09T05:18:54.815Z,154.85
2024-05-09T05:21:30.281Z,160.78
2024-05-09T05:24:02.856Z,156.68
2024-05-09T05:26:39.096Z,152.41
2024-05-09T05:29:11.743Z,153.60
2024-05-09T05:31:46.986Z,156.06
2024-05-09T05:34:22.337Z,162.70
2024-05-09T05:36:57.528Z,154.87
2024-05-09T05:39:30.133Z,156.66
2024-05-09T05:42:05.390Z,163.76
2024-05-09T05:44:38.828Z,178.30
2024-05-09T05:47:14.040Z,205.10
2024-05-09T05:49:49.359Z,241.96
2024-05-09T05:52:27.748Z,247.28
2024-05-09T05:55:00.353Z,256.05
2024-05-09T05:57:35.575Z,264.10
2024-05-09T06:00:09.833Z,258.38
2024-05-09T06:02:48.910Z,254.55
2024-05-09T06:05:26.043Z,252.93
2024-05-09T06:08:02.830Z,258.09
2024-05-09T06:10:39.199Z,250.49
2024-05-09T06:13:18.484Z,241.61
2024-05-09T06:15:50.912Z,247.05
2024-05-09T06:18:26.319Z,257.19
2024-05-09T06:21:01.872Z,263.90
2024-05-09T06:23:37.172Z,269.08
2024-05-09T06:26:10.364Z,265.12
2024-05-09T06:28:45.633Z,259.56
2024-05-09T06:31:18.182Z,257.03
2024-05-09T06:33:53.741Z,266.41
2024-05-09T06:36:31.281Z,277.59
2024-05-09T06:39:06.753Z,277.32
2024-05-09T06:41:41.648Z,274.60
2024-05-09T06:44:17.044Z,275.24
2024-05-09T06:46:49.759Z,264.51
2024-05-09T06:49:29.100Z,265.51
2024-05-09T06:52:04.942Z,265.57
2024-05-09T06:54:40.294Z,266.91
2024-05-09T06:57:12.994Z,279.40
2024-05-09T06:59:51.271Z,279.66
2024-05-09T07:02:23.847Z,274.56
2024-05-09T07:04:59.224Z,279.09
2024-05-09T07:07:34.446Z,276.15
2024-05-09T07:10:14.852Z,272.25
2024-05-09T07:12:50.910Z,264.92
2024-05-09T07:15:26.057Z,262.24
2024-05-09T07:17:58.753Z,265.56
2024-05-09T07:20:36.472Z,267.10
2024-05-09T07:23:12.925Z,264.47
2024-05-09T07:25:48.515Z,270.65
2024-05-09T07:28:21.676Z,265.75
2024-05-09T07:30:56.859Z,268.79
2024-05-09T07:33:29.473Z,266.68
2024-05-09T07:36:04.758Z,273.49
2024-05-09T07:38:39.936Z,273.11
2024-05-09T07:41:15.241Z,281.78
2024-05-09T07:43:48.852Z,280.87
2024-05-09T07:47:17.267Z,280.13
2024-05-09T07:50:55.810Z,275.72
2024-05-09T07:53:29.717Z,281.19
2024-05-09T07:55:09.100Z,284.68
2024-05-09T07:57:44.318Z,280.84
2024-05-09T08:00:23.520Z,274.50
2024-05-09T08:03:02.267Z,285.45
2024-05-09T08:05:34.938Z,284.38
2024-05-09T08:08:11.414Z,282.14
2024-05-09T08:10:46.719Z,291.00
2024-05-09T08:13:22.180Z,285.98
2024-05-09T08:15:54.807Z,288.16
2024-05-09T08:18:30.288Z,285.68
2024-05-09T08:21:02.958Z,288.28
2024-05-09T08:23:40.343Z,288.28
2024-05-09T08:26:18.098Z,288.95
2024-05-09T08:28:50.603Z,283.83
2024-05-09T08:31:25.947Z,282.35
2024-05-09T08:33:58.869Z,285.62
2024-05-09T08:36:34.542Z,292.87
2024-05-09T08:39:07.096Z,288.39
2024-05-09T08:41:46.068Z,275.77
2024-05-09T08:44:19.308Z,270.08
2024-05-09T08:46:54.795Z,262.69
2024-05-09T08:49:27.411Z,253.55
2024-05-09T08:52:02.700Z,243.60
2024-05-09T08:54:35.695Z,208.25
2024-05-09T08:57:16.310Z,204.73
2024-05-09T08:59:50.989Z,212.02
2024-05-09T09:02:27.157Z,230.94
2024-05-09T09:05:06.297Z,244.60
2024-05-09T09:07:42.516Z,231.29
2024-05-09T09:10:24.900Z,227.52
2024-05-09T09:13:09.926Z,235.17
2024-05-09T09:15:50.051Z,228.93
2024-05-09T09:18:29.344Z,229.51
2024-05-09T09:21:02.959Z,236.03
2024-05-09T09:23:38.287Z,236.53
2024-05-09T09:26:16.152Z,241.80
2024-05-09T09:28:54.835Z,239.00
2024-05-09T09:31:27.462Z,241.30
2024-05-09T09:34:10.041Z,246.93
2024-05-09T09:36:44.435Z,250.00
2024-05-09T09:39:23.269Z,247.30
2024-05-09T09:41:58.983Z,237.98
2024-05-09T09:44:39.575Z,245.01
2024-05-09T09:47:17.766Z,249.81
2024-05-09T09:49:53.913Z,246.57
2024-05-09T09:52:28.296Z,250.61
2024-05-09T09:55:04.834Z,245.09
2024-05-09T09:57:40.428Z,235.29
2024-05-09T10:00:24.622Z,226.48
2024-05-09T10:03:02.985Z,223.92
2024-05-09T10:05:44.003Z,230.39
2024-05-09T10:08:22.173Z,217.64
2024-05-09T10:10:55.708Z,226.55
2024-05-09T10:13:36.555Z,218.52
2024-05-09T10:16:12.476Z,206.52
2024-05-09T10:18:47.832Z,211.25
2024-05-09T10:21:21.465Z,217.46
2024-05-09T10:24:01.532Z,213.73
2024-05-09T10:26:36.006Z,213.48
2024-05-09T10:29:15.684Z,219.93
2024-05-09T10:31:50.903Z,202.10
2024-05-09T10:34:26.903Z,200.85
2024-05-09T10:37:02.771Z,209.55
2024-05-09T10:39:42.819Z,212.64
2024-05-09T10:42:19.913Z,208.28
2024-05-09T10:44:55.427Z,218.25
2024-05-09T10:47:30.673Z,212.60
2024-05-09T10:50:15.672Z,209.84
2024-05-09T10:52:54.852Z,202.58
2024-05-09T10:55:30.993Z,188.65
2024-05-09T10:58:16.008Z,175.80
2024-05-09T11:00:52.358Z,150.94
2024-05-09T11:03:28.178Z,121.91
2024-05-09T11:06:04.095Z,109.65
2024-05-09T11:08:37.288Z,107.64
2024-05-09T11:11:13.737Z,125.08
2024-05-09T11:13:46.228Z,139.89
2024-05-09T11:16:22.689Z,143.42
2024-05-09T11:18:59.035Z,134.18
2024-05-09T11:21:34.962Z,116.45
2024-05-09T11:24:11.012Z,108.28
2024-05-09T11:26:46.691Z,109.75
2024-05-09T11:29:19.838Z,109.42
2024-05-09T11:32:00.278Z,111.90
2024-05-09T11:34:35.730Z,112.54
2024-05-09T11:37:13.407Z,112.35
2024-05-09T11:39:46.049Z,100.86
2024-05-09T11:42:22.525Z,91.45
2024-05-09T11:44:54.997Z,110.16
2024-05-09T11:47:30.625Z,108.48
2024-05-09T11:50:08.225Z,99.55
2024-05-09T11:52:45.410Z,101.52
2024-05-09T11:55:18.874Z,99.21
2024-05-09T11:57:54.396Z,96.10
2024-05-09T12:00:34.106Z,94.22
2024-05-09T12:03:12.396Z,92.80
2024-05-09T12:05:47.651Z,85.02
2024-05-09T12:08:23.105Z,89.94
2024-05-09T12:10:56.039Z,86.60
2024-05-09T12:13:33.910Z,99.21
2024-05-09T12:16:07.119Z,102.74
2024-05-09T12:18:42.463Z,100.58
2024-05-09T12:21:17.676Z,95.58
2024-05-09T12:23:52.865Z,87.83
2024-05-09T12:26:25.631Z,87.02
2024-05-09T12:29:00.823Z,95.60
2024-05-09T12:31:33.542Z,97.44
2024-05-09T12:34:08.824Z,96.51
2024-05-09T12:36:44.173Z,99.07
2024-05-09T12:39:19.432Z,102.16
2024-05-09T12:41:52.178Z,104.17
2024-05-09T12:44:27.323Z,98.37
2024-05-09T12:47:00.074Z,93.80
2024-05-09T12:49:35.602Z,104.13
2024-05-09T12:52:10.909Z,103.08
2024-05-09T12:54:46.264Z,100.51
2024-05-09T12:57:18.870Z,97.91
2024-05-09T12:59:54.204Z,97.04
2024-05-09T13:02:26.788Z,90.96
2024-05-09T13:05:02.236Z,82.67
2024-05-09T13:07:38.647Z,98.92
2024-05-09T13:10:19.815Z,92.12
2024-05-09T13:12:55.658Z,85.27
2024-05-09T13:15:31.580Z,94.70
2024-05-09T13:18:05.257Z,101.78
2024-05-09T13:20:40.599Z,108.56
2024-05-09T13:23:15.758Z,112.40
2024-05-09T13:25:50.962Z,100.19
2024-05-09T13:28:23.636Z,106.66
2024-05-09T13:30:58.964Z,104.85
2024-05-09T13:33:33.454Z,98.94
2024-05-09T13:36:09.999Z,93.76
2024-05-09T13:38:45.247Z,86.78
2024-05-09T13:41:20.438Z,80.36
2024-05-09T13:43:53.694Z,74.13
2024-05-09T13:46:28.954Z,77.37
2024-05-09T13:49:03.322Z,84.71
2024-05-09T13:51:38.553Z,80.41
2024-05-09T13:54:14.059Z,78.57
2024-05-09T13:56:49.184Z,76.99
2024-05-09T13:59:21.658Z,78.39
2024-05-09T14:01:59.451Z,73.93
2024-05-09T14:04:32.486Z,71.66
2024-05-09T14:07:10.223Z,77.51
2024-05-09T14:09:47.210Z,69.60
2024-05-09T14:12:22.415Z,59.44
2024-05-09T14:14:56.551Z,64.20
2024-05-09T14:17:31.943Z,59.95
2024-05-09T14:20:06.260Z,59.74
2024-05-09T14:22:43.347Z,56.12
2024-05-09T14:25:18.753Z,58.09
2024-05-09T14:27:54.320Z,55.91
2024-05-09T14:30:34.821Z,49.50
2024-05-09T14:33:16.434Z,53.49
2024-05-09T14:35:49.205Z,62.95
2024-05-09T14:38:24.490Z,65.76
2024-05-09T14:40:59.607Z,53.76
2024-05-09T14:43:34.892Z,43.17
2024-05-09T14:46:07.608Z,39.51
2024-05-09T14:48:43.207Z,42.72
2024-05-09T14:51:16.564Z,47.86
2024-05-09T14:53:51.757Z,50.03
2024-05-09T14:56:26.894Z,63.13
2024-05-09T14:59:02.135Z,74.04
2024-05-09T15:01:37.663Z,62.54
2024-05-09T15:04:12.894Z,55.79
2024-05-09T15:06:45.859Z,64.38
2024-05-09T15:09:21.160Z,72.07
2024-05-09T15:11:56.554Z,68.17
2024-05-09T15:14:33.932Z,74.96
2024-05-09T15:17:06.513Z,76.88
2024-05-09T15:19:41.851Z,80.35
2024-05-09T15:22:16.491Z,79.48
2024-05-09T15:24:53.878Z,78.44
2024-05-09T15:27:29.072Z,83.54
2024-05-09T15:30:06.936Z,78.72
2024-05-09T15:32:42.826Z,76.63
2024-05-09T15:35:18.071Z,73.81
2024-05-09T15:37:50.751Z,75.44
2024-05-09T15:40:35.914Z,86.30
2024-05-09T15:43:15.000Z,82.51
2024-05-09T15:45:50.328Z,81.48
2024-05-09T15:48:23.149Z,84.47
2024-05-09T15:50:58.510Z,88.17
2024-05-09T15:53:31.092Z,97.49
2024-05-09T15:56:06.401Z,106.64
2024-05-09T15:58:41.690Z,108.63
2024-05-09T16:01:17.000Z,97.67
2024-05-09T16:03:50.073Z,97.59
2024-05-09T16:06:26.141Z,109.27
2024-05-09T16:08:58.813Z,108.12
2024-05-09T16:11:33.992Z,106.69
2024-05-09T16:14:09.258Z,113.17
2024-05-09T16:16:44.889Z,113.94
2024-05-09T16:19:17.516Z,106.91
2024-05-09T16:21:52.731Z,111.58
2024-05-09T16:24:25.230Z,112.80
2024-05-09T16:27:00.933Z,123.90
2024-05-09T16:29:36.406Z,120.56
2024-05-09T16:32:11.615Z,120.58
2024-05-09T16:34:44.114Z,126.06
2024-05-09T16:37:19.404Z,133.65
2024-05-09T16:39:51.971Z,130.46
2024-05-09T16:42:27.177Z,130.05
2024-05-09T16:45:05.112Z,139.57
2024-05-09T16:47:41.177Z,145.90
2024-05-09T16:50:19.230Z,145.97
2024-05-09T16:53:00.114Z,141.85
2024-05-09T16:55:32.987Z,159.07
2024-05-09T16:58:12.640Z,172.98
2024-05-09T17:00:48.177Z,158.43
2024-05-09T17:03:25.058Z,157.34
2024-05-09T17:05:57.993Z,177.38
2024-05-09T17:08:33.247Z,161.75
2024-05-09T17:11:05.817Z,173.23
2024-05-09T17:13:41.173Z,149.66
2024-05-09T17:16:20.924Z,141.99
2024-05-09T17:18:56.278Z,155.39
2024-05-09T17:21:28.810Z,151.37
2024-05-09T17:24:03.932Z,187.91
2024-05-09T17:26:37.155Z,195.76
2024-05-09T17:29:13.037Z,187.87
2024-05-09T17:31:48.161Z,162.88
2024-05-09T17:34:23.384Z,153.93
2024-05-09T17:36:56.221Z,147.96
2024-05-09T17:39:31.404Z,149.75
2024-05-09T17:42:04.275Z,136.54
2024-05-09T17:44:39.411Z,145.27
2024-05-09T17:47:14.773Z,136.50
2024-05-09T17:49:50.038Z,139.81
2024-05-09T17:52:22.667Z,138.41
2024-05-09T17:54:58.499Z,130.13
2024-05-09T17:57:32.075Z,125.35
2024-05-09T18:00:11.525Z,129.05
2024-05-09T18:02:52.376Z,117.94
2024-05-09T18:05:29.078Z,128.30
2024-05-09T18:08:01.708Z,145.37
2024-05-09T18:10:39.759Z,133.13
2024-05-09T18:13:14.983Z,123.32
2024-05-09T18:15:50.383Z,122.79
2024-05-09T18:18:25.684Z,121.77
2024-05-09T18:21:00.931Z,116.32
2024-05-09T18:23:33.877Z,120.34
2024-05-09T18:26:09.141Z,113.71
2024-05-09T18:28:41.711Z,121.84
2024-05-09T18:31:18.229Z,116.30
2024-05-09T18:33:53.505Z,113.10
2024-05-09T18:36:29.617Z,108.90
2024-05-09T18:39:03.203Z,112.05
2024-05-09T18:41:38.303Z,111.13
2024-05-09T18:44:10.822Z,109.49
2024-05-09T18:46:48.256Z,109.91
2024-05-09T18:49:23.700Z,111.84
2024-05-09T18:52:02.037Z,112.41
2024-05-09T18:54:34.612Z,118.03
2024-05-09T18:57:09.919Z,118.01
2024-05-09T18:59:42.508Z,109.90
2024-05-09T19:02:18.149Z,119.58
2024-05-09T19:04:53.586Z,127.53
2024-05-09T19:07:28.852Z,137.20
2024-05-09T19:10:01.471Z,146.07
2024-05-09T19:12:36.685Z,143.35
2024-05-09T19:15:09.322Z,148.08
2024-05-09T19:17:44.863Z,153.81
2024-05-09T19:20:28.166Z,159.98
2024-05-09T19:23:07.921Z,160.21
2024-05-09T19:25:40.683Z,160.80
2024-05-09T19:28:15.932Z,163.30
2024-05-09T19:30:48.627Z,168.09
2024-05-09T19:33:23.973Z,167.98
2024-05-09T19:35:59.138Z,165.50
2024-05-09T19:38:34.754Z,169.72
2024-05-09T19:41:07.271Z,169.79
2024-05-09T19:43:42.725Z,172.46
2024-05-09T19:46:15.545Z,174.78
2024-05-09T19:48:51.049Z,179.64
2024-05-09T19:51:26.269Z,185.27
2024-05-09T19:54:01.372Z,188.55
2024-05-09T19:56:34.152Z,182.91
2024-05-09T19:59:09.515Z,183.09
2024-05-09T20:01:42.377Z,171.29
2024-05-09T20:04:17.808Z,180.62
2024-05-09T20:06:53.399Z,180.28
2024-05-09T20:09:28.510Z,178.57
2024-05-09T20:12:01.111Z,185.51
2024-05-09T20:14:36.261Z,183.89
2024-05-09T20:17:08.834Z,183.38
2024-05-09T20:19:46.081Z,185.55
2024-05-09T20:22:21.367Z,192.85
2024-05-09T20:24:56.771Z,184.65
2024-05-09T20:27:29.385Z,186.34
2024-05-09T20:30:09.732Z,180.66
2024-05-09T20:32:44.688Z,185.57
2024-05-09T20:35:19.832Z,181.75
2024-05-09T20:37:57.362Z,176.13
2024-05-09T20:40:37.146Z,182.07
2024-05-09T20:43:11.963Z,174.21
2024-05-09T20:45:47.510Z,177.72
2024-05-09T20:48:20.191Z,181.98
2024-05-09T20:50:55.438Z,177.87
2024-05-09T20:53:30.610Z,185.21
2024-05-09T20:56:05.793Z,180.97
2024-05-09T20:58:38.418Z,191.49
2024-05-09T21:01:15.845Z,186.00
2024-05-09T21:03:48.930Z,184.49
2024-05-09T21:06:24.318Z,184.46
2024-05-09T21:08:59.527Z,190.51
2024-05-09T21:11:34.902Z,197.58
2024-05-09T21:14:07.536Z,202.26
2024-05-09T21:16:42.716Z,199.80
2024-05-09T21:19:15.493Z,192.64
2024-05-09T21:21:51.902Z,195.90
2024-05-09T21:24:28.202Z,188.38
2024-05-09T21:27:03.329Z,190.56
2024-05-09T21:29:35.852Z,184.39
2024-05-09T21:32:11.478Z,200.96
2024-05-09T21:34:44.057Z,192.73
2024-05-09T21:37:19.332Z,192.48
2024-05-09T21:39:54.648Z,211.04
2024-05-09T21:42:29.825Z,203.39
2024-05-09T21:45:02.349Z,208.48
2024-05-09T21:47:37.774Z,207.99
2024-05-09T21:50:18.642Z,205.17
2024-05-09T21:52:58.477Z,210.86
2024-05-09T21:55:33.647Z,223.37
2024-05-09T21:58:08.818Z,220.86
2024-05-09T22:00:43.584Z,212.03
2024-05-09T22:03:18.906Z,216.05
2024-05-09T22:05:51.549Z,208.23
2024-05-09T22:08:26.724Z,207.31
2024-05-09T22:11:02.080Z,205.07
2024-05-09T22:13:37.331Z,201.29
2024-05-09T22:16:09.940Z,192.55
2024-05-09T22:18:45.326Z,193.03
2024-05-09T22:21:17.872Z,198.91
2024-05-09T22:23:53.184Z,205.83
2024-05-09T22:26:28.314Z,200.94
2024-05-09T22:29:03.488Z,207.14
2024-05-09T22:31:36.128Z,224.01
2024-05-09T22:34:11.402Z,214.96
2024-05-09T22:36:46.077Z,207.24
2024-05-09T22:39:23.247Z,205.68
2024-05-09T22:41:58.397Z,200.20
2024-05-09T22:44:34.079Z,205.95
2024-05-09T22:47:06.707Z,210.45
2024-05-09T22:49:41.914Z,207.49
2024-05-09T22:52:14.555Z,194.23
2024-05-09T22:54:49.776Z,188.88
2024-05-09T22:57:25.029Z,187.14
2024-05-09T23:00:00.270Z,190.15
2024-05-09T23:02:32.750Z,200.72
2024-05-09T23:05:08.516Z,200.62
2024-05-09T23:07:41.103Z,196.11
2024-05-09T23:10:21.480Z,203.03
2024-05-09T23:13:03.888Z,200.77
2024-05-09T23:15:40.187Z,212.05
2024-05-09T23:18:12.956Z,193.62
2024-05-09T23:20:48.268Z,188.43
2024-05-09T23:23:21.257Z,184.10
2024-05-09T23:25:56.409Z,186.46
2024-05-09T23:28:31.942Z,193.71
2024-05-09T23:31:07.933Z,196.13
2024-05-09T23:33:45.690Z,209.74
2024-05-09T23:36:21.000Z,213.50
2024-05-09T23:38:53.539Z,214.74
2024-05-09T23:41:29.041Z,216.47
2024-05-09T23:44:04.474Z,217.41
2024-05-09T23:46:39.844Z,216.95
2024-05-09T23:49:12.456Z,205.03
2024-05-09T23:51:47.749Z,212.89
2024-05-09T23:54:20.360Z,200.02
2024-05-09T23:56:55.628Z,195.75
2024-05-09T23:59:31.869Z,197.52
